Historique des mesures à Cassis (13260), France
Quotidien Résumé Juin 27, 2021 Unités:  Métrique/US    US   Métrique
Quotidien Hebdomadaire Mensuel Annuel
  Maximum: Minimum: Moyenne:
Température: 68.4 °F /  20.2 °C 53.4 °F /  11.9 °C 59.9 °F /  15.5 °C
Point de rosée: 55.8 °F /  13.2 °C 47.1 °F /  8.4 °C 50.9 °F /  10.5 °C
Humidité: 79% 63% 73%
Vitesse du vent: 6mph /  9.7km/h - 2.3mph /  3.7km/h
Rafales: 57mph /  91.8km/h - -
Vent- - WNW
Pression: 30.2 in /  1021.3 hPa 30.1 in /  1018.7 hPa -
Précipitations: 0.02 in /  0.5 mm    
Historical Graphs
 
 
Mesures pour : Juin 27, 2021
Heure Temperature Point de rosée Pression Vent Vitesse du vent Rafales Humidité Pluie (par heure)
00:11 56.8 °F /  13.8 °C 48.2 °F /  9 °C 30.1in /  1018.7hPa Calm   2.9mph /  4.7km/h 73% 0in /  0.0mm
01:11 56.1 °F /  13.4 °C 48.2 °F /  9 °C 30.1in /  1018.7hPa WNW 3.8mph /  6.1km/h 5.8mph /  9.4km/h 75% 0in /  0.0mm
02:11 55.4 °F /  13 °C 47.8 °F /  8.8 °C 30.1in /  1018.7hPa NW 6mph /  9.7km/h 6.3mph /  10.1km/h 76% 0in /  0.0mm
03:11 54.9 °F /  12.7 °C 48 °F /  8.9 °C 30.1in /  1019.1hPa NW 5.3mph /  8.6km/h 7mph /  11.2km/h 78% 0in /  0.0mm
04:11 54.7 °F /  12.6 °C 48.2 °F /  9 °C 30.1in /  1019.0hPa NW 3.6mph /  5.8km/h 6.5mph /  10.4km/h 79% 0in /  0.0mm
05:11 55 °F /  12.8 °C 48.6 °F /  9.2 °C 30.1in /  1019.3hPa WNW 2mph /  3.2km/h 3.1mph /  5km/h 79% 0in /  0.0mm
06:11 54.7 °F /  12.6 °C 47.3 °F /  8.5 °C 30.1in /  1019.2hPa NW 4mph /  6.5km/h 5.3mph /  8.6km/h 76% 0in /  0.0mm
07:11 53.8 °F /  12.1 °C 47.1 °F /  8.4 °C 30.1in /  1019.6hPa NW 3.6mph /  5.8km/h 6mph /  9.7km/h 78% 0in /  0.0mm
08:11 53.4 °F /  11.9 °C 47.1 °F /  8.4 °C 30.1in /  1019.9hPa NW 3.1mph /  5km/h 6mph /  9.7km/h 79% 0in /  0.0mm
09:11 55.9 °F /  13.3 °C 49.5 °F /  9.7 °C 30.1in /  1020.6hPa NW 2.5mph /  4km/h 3.1mph /  5km/h 79% 0in /  0.0mm
10:11 59.4 °F /  15.2 °C 51.8 °F /  11 °C 30.2in /  1021.1hPa NNW 1.4mph /  2.2km/h 2.7mph /  4.3km/h 76% 0.02in /  0.5mm
11:11 61.3 °F /  16.3 °C 52.7 °F /  11.5 °C 30.2in /  1021.1hPa Calm     73% 0in /  0.0mm
12:11 63.7 °F /  17.6 °C 53.8 °F /  12.1 °C 30.2in /  1021.3hPa South 2mph /  3.2km/h 5.8mph /  9.4km/h 70% 0in /  0.0mm
13:11 65.5 °F /  18.6 °C 54.1 °F /  12.3 °C 30.2in /  1021.2hPa WSW 1.8mph /  2.9km/h 3.4mph /  5.4km/h 67% 0in /  0.0mm
14:11 67.3 °F /  19.6 °C 55 °F /  12.8 °C 30.1in /  1020.5hPa SE 2mph /  3.2km/h 5.6mph /  9km/h 65% 0in /  0.0mm
15:11 67.5 °F /  19.7 °C 55.2 °F /  12.9 °C 30.1in /  1019.8hPa SE 1.1mph /  1.8km/h 3.8mph /  6.1km/h 65% 0in /  0.0mm
16:11 68.4 °F /  20.2 °C 55.8 °F /  13.2 °C 30.1in /  1019.6hPa Calm   4.7mph /  7.6km/h 64% 0in /  0.0mm
17:11 67.6 °F /  19.8 °C 54.5 °F /  12.5 °C 30.1in /  1019.3hPa SW 2.2mph /  3.6km/h 4.5mph /  7.2km/h 63% 0in /  0.0mm
18:11 65.5 °F /  18.6 °C 53.4 °F /  11.9 °C 30.1in /  1019.3hPa WSW 1.8mph /  2.9km/h 2.5mph /  4km/h 65% 0in /  0.0mm
19:11 62.1 °F /  16.7 °C 52.5 °F /  11.4 °C 30.1in /  1019.5hPa NW 2.5mph /  4km/h 4.5mph /  7.2km/h 71% 0in /  0.0mm
20:11 60.6 °F /  15.9 °C 52 °F /  11.1 °C 30.1in /  1019.7hPa WNW 1.6mph /  2.5km/h 3.4mph /  5.4km/h 73% 0in /  0.0mm
21:11 60.1 °F /  15.6 °C 51.8 °F /  11 °C 30.1in /  1019.8hPa NNW 1.4mph /  2.2km/h 4mph /  6.5km/h 74% 0in /  0.0mm
22:11 59 °F /  15 °C 50.7 °F /  10.4 °C 30.1in /  1019.9hPa NW 1.6mph /  2.5km/h 57mph /  91.8km/h 74% 0in /  0.0mm
23:11 58.8 °F /  14.9 °C 49.8 °F /  9.9 °C 30.1in /  1020.0hPa NNW 1.6mph /  2.5km/h 3.1mph /  5km/h 72% 0in /  0.0mm
Observations météo à CASSIS
WU-History script by Weather Underground - 2 mb